sensor_id;sensor_type;location;lat;lon;timestamp;P1;durP1;ratioP1;P2;durP2;ratioP2
77520;SDS011;66633;47.628;19.158;2023-07-29T00:01:10;5.83;;;2.93;;
77520;SDS011;66633;47.628;19.158;2023-07-29T00:03:35;6.47;;;2.77;;
77520;SDS011;66633;47.628;19.158;2023-07-29T00:06:01;5.57;;;2.92;;
77520;SDS011;66633;47.628;19.158;2023-07-29T00:08:26;6.25;;;3.22;;
77520;SDS011;66633;47.628;19.158;2023-07-29T00:10:51;7.07;;;3.60;;
77520;SDS011;66633;47.628;19.158;2023-07-29T00:13:17;6.88;;;3.40;;
77520;SDS011;66633;47.628;19.158;2023-07-29T00:15:42;7.45;;;3.03;;
77520;SDS011;66633;47.628;19.158;2023-07-29T00:18:07;5.15;;;2.60;;
77520;SDS011;66633;47.628;19.158;2023-07-29T00:20:32;7.00;;;3.13;;
77520;SDS011;66633;47.628;19.158;2023-07-29T00:22:58;6.07;;;3.07;;
77520;SDS011;66633;47.628;19.158;2023-07-29T00:25:24;6.30;;;2.63;;
77520;SDS011;66633;47.628;19.158;2023-07-29T00:27:49;7.03;;;3.33;;
77520;SDS011;66633;47.628;19.158;2023-07-29T00:30:14;6.63;;;3.42;;
77520;SDS011;66633;47.628;19.158;2023-07-29T00:32:39;5.97;;;2.57;;
77520;SDS011;66633;47.628;19.158;2023-07-29T00:35:05;4.90;;;2.53;;
77520;SDS011;66633;47.628;19.158;2023-07-29T00:37:31;5.63;;;3.00;;
77520;SDS011;66633;47.628;19.158;2023-07-29T00:39:56;7.40;;;3.10;;
77520;SDS011;66633;47.628;19.158;2023-07-29T00:42:21;6.60;;;3.28;;
77520;SDS011;66633;47.628;19.158;2023-07-29T00:44:47;8.00;;;3.40;;
77520;SDS011;66633;47.628;19.158;2023-07-29T00:47:12;6.20;;;2.83;;
77520;SDS011;66633;47.628;19.158;2023-07-29T00:49:39;7.32;;;3.15;;
77520;SDS011;66633;47.628;19.158;2023-07-29T00:52:04;8.15;;;3.08;;
77520;SDS011;66633;47.628;19.158;2023-07-29T00:54:29;5.85;;;2.65;;
77520;SDS011;66633;47.628;19.158;2023-07-29T00:56:55;5.50;;;2.70;;
77520;SDS011;66633;47.628;19.158;2023-07-29T00:59:20;6.15;;;2.60;;
77520;SDS011;66633;47.628;19.158;2023-07-29T01:01:45;6.63;;;3.37;;
77520;SDS011;66633;47.628;19.158;2023-07-29T01:04:10;7.60;;;3.40;;
77520;SDS011;66633;47.628;19.158;2023-07-29T01:12:16;7.45;;;3.40;;
77520;SDS011;66633;47.628;19.158;2023-07-29T01:14:47;6.30;;;3.30;;
77520;SDS011;66633;47.628;19.158;2023-07-29T01:17:17;5.95;;;3.10;;
77520;SDS011;66633;47.628;19.158;2023-07-29T01:22:17;7.10;;;2.47;;
77520;SDS011;66633;47.628;19.158;2023-07-29T01:24:44;5.65;;;2.78;;
77520;SDS011;66633;47.628;19.158;2023-07-29T01:27:09;6.13;;;3.37;;
77520;SDS011;66633;47.628;19.158;2023-07-29T01:29:34;6.00;;;2.90;;
77520;SDS011;66633;47.628;19.158;2023-07-29T01:32:01;7.65;;;3.25;;
77520;SDS011;66633;47.628;19.158;2023-07-29T01:34:32;6.35;;;3.40;;
77520;SDS011;66633;47.628;19.158;2023-07-29T01:36:59;6.47;;;2.63;;
77520;SDS011;66633;47.628;19.158;2023-07-29T01:39:27;5.82;;;2.75;;
77520;SDS011;66633;47.628;19.158;2023-07-29T01:41:54;6.03;;;2.85;;
77520;SDS011;66633;47.628;19.158;2023-07-29T01:44:19;6.68;;;3.10;;
77520;SDS011;66633;47.628;19.158;2023-07-29T01:46:45;6.18;;;2.97;;
77520;SDS011;66633;47.628;19.158;2023-07-29T01:49:10;5.65;;;2.60;;
77520;SDS011;66633;47.628;19.158;2023-07-29T01:51:35;7.18;;;3.15;;
77520;SDS011;66633;47.628;19.158;2023-07-29T01:54:01;5.37;;;2.80;;
77520;SDS011;66633;47.628;19.158;2023-07-29T01:56:26;5.68;;;3.20;;
77520;SDS011;66633;47.628;19.158;2023-07-29T01:58:51;7.27;;;3.97;;
77520;SDS011;66633;47.628;19.158;2023-07-29T02:01:16;7.27;;;3.60;;
77520;SDS011;66633;47.628;19.158;2023-07-29T02:03:43;6.80;;;3.40;;
77520;SDS011;66633;47.628;19.158;2023-07-29T02:06:08;5.95;;;2.97;;
77520;SDS011;66633;47.628;19.158;2023-07-29T02:08:33;6.35;;;3.13;;
77520;SDS011;66633;47.628;19.158;2023-07-29T02:10:58;5.78;;;2.63;;
77520;SDS011;66633;47.628;19.158;2023-07-29T02:13:24;8.17;;;3.67;;
77520;SDS011;66633;47.628;19.158;2023-07-29T02:15:49;8.32;;;3.47;;
77520;SDS011;66633;47.628;19.158;2023-07-29T02:18:14;7.30;;;2.73;;
77520;SDS011;66633;47.628;19.158;2023-07-29T02:20:39;6.73;;;3.13;;
77520;SDS011;66633;47.628;19.158;2023-07-29T02:23:05;6.65;;;2.58;;
77520;SDS011;66633;47.628;19.158;2023-07-29T02:25:31;6.30;;;3.05;;
77520;SDS011;66633;47.628;19.158;2023-07-29T02:27:56;5.65;;;2.83;;
77520;SDS011;66633;47.628;19.158;2023-07-29T02:30:21;6.80;;;3.03;;
77520;SDS011;66633;47.628;19.158;2023-07-29T02:32:46;5.90;;;3.05;;
77520;SDS011;66633;47.628;19.158;2023-07-29T02:35:12;6.30;;;2.90;;
77520;SDS011;66633;47.628;19.158;2023-07-29T02:37:37;6.60;;;3.17;;
77520;SDS011;66633;47.628;19.158;2023-07-29T02:40:02;6.47;;;3.20;;
77520;SDS011;66633;47.628;19.158;2023-07-29T02:42:28;6.60;;;3.38;;
77520;SDS011;66633;47.628;19.158;2023-07-29T02:44:54;5.82;;;2.90;;
77520;SDS011;66633;47.628;19.158;2023-07-29T02:47:19;7.18;;;3.05;;
77520;SDS011;66633;47.628;19.158;2023-07-29T02:49:44;6.70;;;3.23;;
77520;SDS011;66633;47.628;19.158;2023-07-29T02:52:10;5.72;;;2.80;;
77520;SDS011;66633;47.628;19.158;2023-07-29T02:54:35;4.87;;;2.30;;
77520;SDS011;66633;47.628;19.158;2023-07-29T02:57:00;5.90;;;2.97;;
77520;SDS011;66633;47.628;19.158;2023-07-29T02:59:26;6.38;;;3.22;;
77520;SDS011;66633;47.628;19.158;2023-07-29T03:01:51;7.43;;;3.37;;
77520;SDS011;66633;47.628;19.158;2023-07-29T03:04:16;7.30;;;3.13;;
77520;SDS011;66633;47.628;19.158;2023-07-29T03:06:41;6.15;;;2.92;;
77520;SDS011;66633;47.628;19.158;2023-07-29T03:09:07;6.18;;;2.60;;
77520;SDS011;66633;47.628;19.158;2023-07-29T03:11:32;6.87;;;2.97;;
77520;SDS011;66633;47.628;19.158;2023-07-29T03:13:58;7.77;;;3.30;;
77520;SDS011;66633;47.628;19.158;2023-07-29T03:16:23;6.47;;;3.42;;
77520;SDS011;66633;47.628;19.158;2023-07-29T03:18:49;6.30;;;3.20;;
77520;SDS011;66633;47.628;19.158;2023-07-29T03:21:14;10.95;;;3.70;;
77520;SDS011;66633;47.628;19.158;2023-07-29T03:23:39;5.60;;;2.88;;
77520;SDS011;66633;47.628;19.158;2023-07-29T03:26:04;7.33;;;3.63;;
77520;SDS011;66633;47.628;19.158;2023-07-29T03:28:35;6.28;;;3.05;;
77520;SDS011;66633;47.628;19.158;2023-07-29T03:31:01;5.93;;;2.80;;
77520;SDS011;66633;47.628;19.158;2023-07-29T03:33:26;7.20;;;3.50;;
77520;SDS011;66633;47.628;19.158;2023-07-29T03:35:52;7.50;;;3.17;;
77520;SDS011;66633;47.628;19.158;2023-07-29T03:38:17;6.15;;;3.17;;
77520;SDS011;66633;47.628;19.158;2023-07-29T03:40:42;7.40;;;3.53;;
77520;SDS011;66633;47.628;19.158;2023-07-29T03:43:08;5.75;;;2.75;;
77520;SDS011;66633;47.628;19.158;2023-07-29T03:45:34;5.88;;;2.80;;
77520;SDS011;66633;47.628;19.158;2023-07-29T03:47:59;8.05;;;3.40;;
77520;SDS011;66633;47.628;19.158;2023-07-29T03:50:25;6.60;;;3.65;;
77520;SDS011;66633;47.628;19.158;2023-07-29T03:52:51;6.35;;;3.20;;
77520;SDS011;66633;47.628;19.158;2023-07-29T03:55:16;6.80;;;3.27;;
77520;SDS011;66633;47.628;19.158;2023-07-29T03:57:41;6.95;;;3.17;;
77520;SDS011;66633;47.628;19.158;2023-07-29T04:00:06;6.73;;;3.40;;
77520;SDS011;66633;47.628;19.158;2023-07-29T04:02:32;6.00;;;2.88;;
77520;SDS011;66633;47.628;19.158;2023-07-29T04:04:57;6.83;;;2.93;;
77520;SDS011;66633;47.628;19.158;2023-07-29T04:07:22;5.93;;;2.80;;
77520;SDS011;66633;47.628;19.158;2023-07-29T04:09:48;6.13;;;3.47;;
77520;SDS011;66633;47.628;19.158;2023-07-29T04:12:14;7.35;;;3.60;;
77520;SDS011;66633;47.628;19.158;2023-07-29T04:14:39;5.97;;;3.17;;
77520;SDS011;66633;47.628;19.158;2023-07-29T04:17:04;7.10;;;4.20;;
77520;SDS011;66633;47.628;19.158;2023-07-29T04:19:30;7.30;;;3.65;;
77520;SDS011;66633;47.628;19.158;2023-07-29T04:21:55;7.63;;;3.17;;
77520;SDS011;66633;47.628;19.158;2023-07-29T04:24:20;8.40;;;4.00;;
77520;SDS011;66633;47.628;19.158;2023-07-29T04:26:48;7.68;;;3.22;;
77520;SDS011;66633;47.628;19.158;2023-07-29T04:29:13;6.38;;;3.63;;
77520;SDS011;66633;47.628;19.158;2023-07-29T04:31:39;8.38;;;3.83;;
77520;SDS011;66633;47.628;19.158;2023-07-29T04:34:04;6.25;;;3.15;;
77520;SDS011;66633;47.628;19.158;2023-07-29T04:36:29;7.45;;;3.67;;
77520;SDS011;66633;47.628;19.158;2023-07-29T04:38:55;7.57;;;3.37;;
77520;SDS011;66633;47.628;19.158;2023-07-29T04:41:20;6.80;;;3.17;;
77520;SDS011;66633;47.628;19.158;2023-07-29T04:43:45;6.63;;;3.13;;
77520;SDS011;66633;47.628;19.158;2023-07-29T04:46:11;6.57;;;3.13;;
77520;SDS011;66633;47.628;19.158;2023-07-29T04:48:36;6.47;;;3.03;;
77520;SDS011;66633;47.628;19.158;2023-07-29T04:51:01;5.90;;;3.00;;
77520;SDS011;66633;47.628;19.158;2023-07-29T04:53:27;6.55;;;3.72;;
77520;SDS011;66633;47.628;19.158;2023-07-29T04:55:52;6.70;;;3.40;;
77520;SDS011;66633;47.628;19.158;2023-07-29T04:58:17;7.70;;;4.40;;
77520;SDS011;66633;47.628;19.158;2023-07-29T05:00:42;6.63;;;3.90;;
77520;SDS011;66633;47.628;19.158;2023-07-29T05:03:08;8.88;;;5.00;;
77520;SDS011;66633;47.628;19.158;2023-07-29T05:05:33;7.40;;;4.60;;
77520;SDS011;66633;47.628;19.158;2023-07-29T05:07:58;6.63;;;4.30;;
77520;SDS011;66633;47.628;19.158;2023-07-29T05:10:23;7.23;;;3.93;;
77520;SDS011;66633;47.628;19.158;2023-07-29T05:12:49;6.88;;;4.07;;
77520;SDS011;66633;47.628;19.158;2023-07-29T05:15:14;8.20;;;4.78;;
77520;SDS011;66633;47.628;19.158;2023-07-29T05:17:39;8.80;;;4.25;;
77520;SDS011;66633;47.628;19.158;2023-07-29T05:20:05;8.20;;;4.60;;
77520;SDS011;66633;47.628;19.158;2023-07-29T05:22:30;7.57;;;4.70;;
77520;SDS011;66633;47.628;19.158;2023-07-29T05:24:56;7.83;;;3.73;;
77520;SDS011;66633;47.628;19.158;2023-07-29T05:27:22;7.25;;;3.67;;
77520;SDS011;66633;47.628;19.158;2023-07-29T05:29:47;7.53;;;4.07;;
77520;SDS011;66633;47.628;19.158;2023-07-29T05:32:12;7.40;;;3.53;;
77520;SDS011;66633;47.628;19.158;2023-07-29T05:34:38;6.93;;;3.47;;
77520;SDS011;66633;47.628;19.158;2023-07-29T05:37:03;6.87;;;3.60;;
77520;SDS011;66633;47.628;19.158;2023-07-29T05:39:29;7.20;;;3.63;;
77520;SDS011;66633;47.628;19.158;2023-07-29T05:41:54;7.65;;;3.50;;
77520;SDS011;66633;47.628;19.158;2023-07-29T05:44:20;5.87;;;3.03;;
77520;SDS011;66633;47.628;19.158;2023-07-29T05:46:45;6.63;;;3.30;;
77520;SDS011;66633;47.628;19.158;2023-07-29T05:49:10;6.00;;;3.35;;
77520;SDS011;66633;47.628;19.158;2023-07-29T05:51:35;5.55;;;3.25;;
77520;SDS011;66633;47.628;19.158;2023-07-29T05:54:01;6.43;;;3.30;;
77520;SDS011;66633;47.628;19.158;2023-07-29T05:56:26;6.93;;;3.63;;
77520;SDS011;66633;47.628;19.158;2023-07-29T05:58:51;6.55;;;3.53;;
77520;SDS011;66633;47.628;19.158;2023-07-29T06:01:16;7.05;;;4.15;;
77520;SDS011;66633;47.628;19.158;2023-07-29T06:03:41;7.10;;;3.73;;
77520;SDS011;66633;47.628;19.158;2023-07-29T06:06:07;6.27;;;3.50;;
77520;SDS011;66633;47.628;19.158;2023-07-29T06:08:32;6.63;;;3.65;;
77520;SDS011;66633;47.628;19.158;2023-07-29T06:10:59;7.10;;;3.90;;
77520;SDS011;66633;47.628;19.158;2023-07-29T06:13:24;7.18;;;4.03;;
77520;SDS011;66633;47.628;19.158;2023-07-29T06:15:50;7.07;;;3.90;;
77520;SDS011;66633;47.628;19.158;2023-07-29T06:18:15;6.93;;;3.30;;
77520;SDS011;66633;47.628;19.158;2023-07-29T06:20:40;6.57;;;3.33;;
77520;SDS011;66633;47.628;19.158;2023-07-29T06:23:05;6.10;;;3.60;;
77520;SDS011;66633;47.628;19.158;2023-07-29T06:25:31;6.90;;;3.90;;
77520;SDS011;66633;47.628;19.158;2023-07-29T06:27:56;6.17;;;3.17;;
77520;SDS011;66633;47.628;19.158;2023-07-29T06:30:23;6.50;;;3.67;;
77520;SDS011;66633;47.628;19.158;2023-07-29T06:32:48;7.70;;;3.90;;
77520;SDS011;66633;47.628;19.158;2023-07-29T06:35:13;6.03;;;3.20;;
77520;SDS011;66633;47.628;19.158;2023-07-29T06:37:39;7.40;;;3.22;;
77520;SDS011;66633;47.628;19.158;2023-07-29T06:40:04;5.97;;;3.07;;
77520;SDS011;66633;47.628;19.158;2023-07-29T06:42:30;5.90;;;3.10;;
77520;SDS011;66633;47.628;19.158;2023-07-29T06:44:55;5.87;;;3.20;;
77520;SDS011;66633;47.628;19.158;2023-07-29T06:47:20;5.70;;;3.23;;
77520;SDS011;66633;47.628;19.158;2023-07-29T06:49:46;6.10;;;3.43;;
77520;SDS011;66633;47.628;19.158;2023-07-29T06:52:11;5.88;;;3.10;;
77520;SDS011;66633;47.628;19.158;2023-07-29T06:54:36;7.13;;;3.43;;
77520;SDS011;66633;47.628;19.158;2023-07-29T06:57:02;7.03;;;3.63;;
77520;SDS011;66633;47.628;19.158;2023-07-29T06:59:27;8.05;;;3.38;;
77520;SDS011;66633;47.628;19.158;2023-07-29T07:01:52;5.50;;;3.23;;
77520;SDS011;66633;47.628;19.158;2023-07-29T07:04:18;6.55;;;3.45;;
77520;SDS011;66633;47.628;19.158;2023-07-29T07:06:43;5.93;;;3.07;;
77520;SDS011;66633;47.628;19.158;2023-07-29T07:09:08;5.80;;;3.00;;
77520;SDS011;66633;47.628;19.158;2023-07-29T07:11:33;6.20;;;2.83;;
77520;SDS011;66633;47.628;19.158;2023-07-29T07:13:59;6.33;;;3.20;;
77520;SDS011;66633;47.628;19.158;2023-07-29T07:16:24;6.10;;;3.10;;
77520;SDS011;66633;47.628;19.158;2023-07-29T07:18:49;6.10;;;3.27;;
77520;SDS011;66633;47.628;19.158;2023-07-29T07:21:14;5.43;;;2.90;;
77520;SDS011;66633;47.628;19.158;2023-07-29T07:23:39;5.63;;;2.77;;
77520;SDS011;66633;47.628;19.158;2023-07-29T07:26:05;5.72;;;3.20;;
77520;SDS011;66633;47.628;19.158;2023-07-29T07:28:30;6.13;;;3.50;;
77520;SDS011;66633;47.628;19.158;2023-07-29T07:30:55;5.10;;;3.00;;
77520;SDS011;66633;47.628;19.158;2023-07-29T07:33:21;5.63;;;2.80;;
77520;SDS011;66633;47.628;19.158;2023-07-29T07:35:46;5.90;;;2.92;;
77520;SDS011;66633;47.628;19.158;2023-07-29T07:38:12;5.30;;;2.90;;
77520;SDS011;66633;47.628;19.158;2023-07-29T07:40:37;5.22;;;2.67;;
77520;SDS011;66633;47.628;19.158;2023-07-29T07:43:02;4.77;;;2.37;;
77520;SDS011;66633;47.628;19.158;2023-07-29T07:45:27;5.40;;;2.60;;
77520;SDS011;66633;47.628;19.158;2023-07-29T07:47:53;5.63;;;2.83;;
77520;SDS011;66633;47.628;19.158;2023-07-29T07:50:21;7.45;;;3.20;;
77520;SDS011;66633;47.628;19.158;2023-07-29T07:52:46;6.53;;;3.20;;
77520;SDS011;66633;47.628;19.158;2023-07-29T07:55:11;5.47;;;2.70;;
77520;SDS011;66633;47.628;19.158;2023-07-29T07:57:37;5.03;;;2.70;;
77520;SDS011;66633;47.628;19.158;2023-07-29T08:00:02;5.75;;;3.28;;
77520;SDS011;66633;47.628;19.158;2023-07-29T08:02:29;6.05;;;3.05;;
77520;SDS011;66633;47.628;19.158;2023-07-29T08:04:55;5.30;;;2.85;;
77520;SDS011;66633;47.628;19.158;2023-07-29T08:07:20;5.03;;;2.75;;
77520;SDS011;66633;47.628;19.158;2023-07-29T08:09:45;6.77;;;2.80;;
77520;SDS011;66633;47.628;19.158;2023-07-29T08:12:11;5.67;;;3.30;;
77520;SDS011;66633;47.628;19.158;2023-07-29T08:14:36;5.50;;;2.73;;
77520;SDS011;66633;47.628;19.158;2023-07-29T08:17:01;5.43;;;3.23;;
77520;SDS011;66633;47.628;19.158;2023-07-29T08:19:26;6.13;;;3.15;;
77520;SDS011;66633;47.628;19.158;2023-07-29T08:21:52;5.57;;;2.92;;
77520;SDS011;66633;47.628;19.158;2023-07-29T08:24:17;5.10;;;2.90;;
77520;SDS011;66633;47.628;19.158;2023-07-29T08:26:43;6.17;;;3.30;;
77520;SDS011;66633;47.628;19.158;2023-07-29T08:29:08;6.97;;;3.37;;
77520;SDS011;66633;47.628;19.158;2023-07-29T08:31:33;5.50;;;3.08;;
77520;SDS011;66633;47.628;19.158;2023-07-29T08:33:59;5.45;;;2.75;;
77520;SDS011;66633;47.628;19.158;2023-07-29T08:36:24;5.35;;;2.78;;
77520;SDS011;66633;47.628;19.158;2023-07-29T08:38:49;4.93;;;2.65;;
77520;SDS011;66633;47.628;19.158;2023-07-29T08:43:56;5.00;;;2.80;;
77520;SDS011;66633;47.628;19.158;2023-07-29T08:46:24;5.55;;;2.78;;
77520;SDS011;66633;47.628;19.158;2023-07-29T08:48:50;4.18;;;2.22;;
77520;SDS011;66633;47.628;19.158;2023-07-29T08:51:16;4.75;;;2.50;;
77520;SDS011;66633;47.628;19.158;2023-07-29T08:53:42;4.43;;;2.22;;
77520;SDS011;66633;47.628;19.158;2023-07-29T08:56:07;5.95;;;2.30;;
77520;SDS011;66633;47.628;19.158;2023-07-29T08:58:33;4.70;;;2.33;;
77520;SDS011;66633;47.628;19.158;2023-07-29T09:00:58;4.88;;;2.40;;
77520;SDS011;66633;47.628;19.158;2023-07-29T09:03:23;4.70;;;2.00;;
77520;SDS011;66633;47.628;19.158;2023-07-29T09:05:49;4.55;;;2.33;;
77520;SDS011;66633;47.628;19.158;2023-07-29T09:08:15;4.47;;;2.13;;
77520;SDS011;66633;47.628;19.158;2023-07-29T09:10:41;4.18;;;2.03;;
77520;SDS011;66633;47.628;19.158;2023-07-29T09:13:06;4.93;;;2.05;;
77520;SDS011;66633;47.628;19.158;2023-07-29T09:15:32;4.82;;;2.50;;
77520;SDS011;66633;47.628;19.158;2023-07-29T09:17:58;4.35;;;2.33;;
77520;SDS011;66633;47.628;19.158;2023-07-29T09:20:26;6.53;;;2.55;;
77520;SDS011;66633;47.628;19.158;2023-07-29T09:22:53;4.15;;;2.38;;
77520;SDS011;66633;47.628;19.158;2023-07-29T09:25:25;4.60;;;2.67;;
77520;SDS011;66633;47.628;19.158;2023-07-29T09:27:50;4.80;;;2.30;;
77520;SDS011;66633;47.628;19.158;2023-07-29T09:30:16;4.73;;;2.33;;
77520;SDS011;66633;47.628;19.158;2023-07-29T09:32:41;5.95;;;2.28;;
77520;SDS011;66633;47.628;19.158;2023-07-29T09:35:09;4.57;;;2.20;;
77520;SDS011;66633;47.628;19.158;2023-07-29T09:37:36;4.78;;;2.28;;
77520;SDS011;66633;47.628;19.158;2023-07-29T09:40:02;5.80;;;2.72;;
77520;SDS011;66633;47.628;19.158;2023-07-29T09:42:28;3.90;;;2.03;;
77520;SDS011;66633;47.628;19.158;2023-07-29T09:44:53;4.50;;;2.30;;
77520;SDS011;66633;47.628;19.158;2023-07-29T09:47:21;4.95;;;2.10;;
77520;SDS011;66633;47.628;19.158;2023-07-29T09:49:47;4.57;;;2.00;;
77520;SDS011;66633;47.628;19.158;2023-07-29T09:52:14;4.90;;;2.38;;
77520;SDS011;66633;47.628;19.158;2023-07-29T09:54:39;4.63;;;2.35;;
77520;SDS011;66633;47.628;19.158;2023-07-29T09:57:06;4.18;;;2.20;;
77520;SDS011;66633;47.628;19.158;2023-07-29T09:59:35;4.82;;;2.75;;
77520;SDS011;66633;47.628;19.158;2023-07-29T10:02:00;5.20;;;2.30;;
77520;SDS011;66633;47.628;19.158;2023-07-29T10:04:26;4.07;;;2.10;;
77520;SDS011;66633;47.628;19.158;2023-07-29T10:06:52;5.00;;;2.35;;
77520;SDS011;66633;47.628;19.158;2023-07-29T10:09:17;4.30;;;2.20;;
77520;SDS011;66633;47.628;19.158;2023-07-29T10:11:44;4.30;;;2.03;;
77520;SDS011;66633;47.628;19.158;2023-07-29T10:14:09;3.88;;;1.83;;
77520;SDS011;66633;47.628;19.158;2023-07-29T10:16:37;4.38;;;2.33;;
77520;SDS011;66633;47.628;19.158;2023-07-29T10:19:04;4.15;;;2.28;;
77520;SDS011;66633;47.628;19.158;2023-07-29T10:21:29;3.90;;;2.00;;
77520;SDS011;66633;47.628;19.158;2023-07-29T10:23:55;3.67;;;1.92;;
77520;SDS011;66633;47.628;19.158;2023-07-29T10:26:25;4.38;;;2.10;;
77520;SDS011;66633;47.628;19.158;2023-07-29T10:28:51;4.40;;;1.85;;
77520;SDS011;66633;47.628;19.158;2023-07-29T10:31:18;3.30;;;1.63;;
77520;SDS011;66633;47.628;19.158;2023-07-29T10:33:43;4.05;;;1.95;;
77520;SDS011;66633;47.628;19.158;2023-07-29T10:36:09;3.20;;;1.63;;
77520;SDS011;66633;47.628;19.158;2023-07-29T10:38:35;4.40;;;2.15;;
77520;SDS011;66633;47.628;19.158;2023-07-29T10:41:00;4.35;;;2.05;;
77520;SDS011;66633;47.628;19.158;2023-07-29T10:43:27;4.07;;;1.88;;
77520;SDS011;66633;47.628;19.158;2023-07-29T10:45:52;4.35;;;1.95;;
77520;SDS011;66633;47.628;19.158;2023-07-29T10:53:44;4.18;;;2.33;;
77520;SDS011;66633;47.628;19.158;2023-07-29T10:56:09;3.17;;;1.50;;
77520;SDS011;66633;47.628;19.158;2023-07-29T10:58:34;3.77;;;1.60;;
77520;SDS011;66633;47.628;19.158;2023-07-29T11:00:59;4.13;;;2.10;;
77520;SDS011;66633;47.628;19.158;2023-07-29T11:03:25;4.13;;;1.80;;
77520;SDS011;66633;47.628;19.158;2023-07-29T11:05:53;4.63;;;2.10;;
77520;SDS011;66633;47.628;19.158;2023-07-29T11:08:28;4.32;;;2.00;;
77520;SDS011;66633;47.628;19.158;2023-07-29T11:11:12;4.35;;;2.33;;
77520;SDS011;66633;47.628;19.158;2023-07-29T11:13:38;4.82;;;1.75;;
77520;SDS011;66633;47.628;19.158;2023-07-29T11:16:03;3.85;;;1.80;;
77520;SDS011;66633;47.628;19.158;2023-07-29T11:18:29;4.68;;;2.10;;
77520;SDS011;66633;47.628;19.158;2023-07-29T11:20:55;4.47;;;2.15;;
77520;SDS011;66633;47.628;19.158;2023-07-29T11:23:21;5.15;;;2.55;;
77520;SDS011;66633;47.628;19.158;2023-07-29T11:25:51;3.88;;;1.77;;
77520;SDS011;66633;47.628;19.158;2023-07-29T11:28:17;4.32;;;1.85;;
77520;SDS011;66633;47.628;19.158;2023-07-29T11:30:42;4.53;;;2.20;;
77520;SDS011;66633;47.628;19.158;2023-07-29T11:33:07;3.97;;;2.00;;
77520;SDS011;66633;47.628;19.158;2023-07-29T11:35:32;3.20;;;1.90;;
77520;SDS011;66633;47.628;19.158;2023-07-29T11:37:58;4.38;;;2.25;;
77520;SDS011;66633;47.628;19.158;2023-07-29T11:40:23;3.83;;;1.77;;
77520;SDS011;66633;47.628;19.158;2023-07-29T11:42:50;3.45;;;1.95;;
77520;SDS011;66633;47.628;19.158;2023-07-29T11:45:15;3.65;;;2.17;;
77520;SDS011;66633;47.628;19.158;2023-07-29T11:47:41;3.35;;;2.08;;
77520;SDS011;66633;47.628;19.158;2023-07-29T11:50:07;4.53;;;2.22;;
77520;SDS011;66633;47.628;19.158;2023-07-29T11:52:39;4.70;;;2.53;;
77520;SDS011;66633;47.628;19.158;2023-07-29T11:55:05;4.20;;;2.03;;
77520;SDS011;66633;47.628;19.158;2023-07-29T11:57:31;4.18;;;2.25;;
77520;SDS011;66633;47.628;19.158;2023-07-29T11:59:56;4.53;;;1.85;;
77520;SDS011;66633;47.628;19.158;2023-07-29T12:02:22;4.55;;;2.30;;
77520;SDS011;66633;47.628;19.158;2023-07-29T12:04:48;4.30;;;2.40;;
77520;SDS011;66633;47.628;19.158;2023-07-29T12:07:14;3.55;;;1.92;;
77520;SDS011;66633;47.628;19.158;2023-07-29T12:09:40;3.58;;;1.90;;
77520;SDS011;66633;47.628;19.158;2023-07-29T12:12:05;5.10;;;2.70;;
77520;SDS011;66633;47.628;19.158;2023-07-29T12:14:31;4.97;;;2.45;;
77520;SDS011;66633;47.628;19.158;2023-07-29T12:16:59;4.50;;;2.63;;
77520;SDS011;66633;47.628;19.158;2023-07-29T12:19:30;4.25;;;2.22;;
77520;SDS011;66633;47.628;19.158;2023-07-29T12:21:56;3.85;;;1.65;;
77520;SDS011;66633;47.628;19.158;2023-07-29T12:24:22;3.87;;;1.90;;
77520;SDS011;66633;47.628;19.158;2023-07-29T12:26:47;4.22;;;2.45;;
77520;SDS011;66633;47.628;19.158;2023-07-29T12:29:13;4.13;;;2.40;;
77520;SDS011;66633;47.628;19.158;2023-07-29T12:31:38;5.13;;;2.67;;
77520;SDS011;66633;47.628;19.158;2023-07-29T12:34:03;4.80;;;2.60;;
77520;SDS011;66633;47.628;19.158;2023-07-29T12:36:44;4.53;;;2.30;;
77520;SDS011;66633;47.628;19.158;2023-07-29T12:39:19;4.68;;;2.95;;
77520;SDS011;66633;47.628;19.158;2023-07-29T12:41:45;5.50;;;2.53;;
77520;SDS011;66633;47.628;19.158;2023-07-29T12:44:10;4.50;;;2.30;;
77520;SDS011;66633;47.628;19.158;2023-07-29T12:46:36;4.95;;;2.95;;
77520;SDS011;66633;47.628;19.158;2023-07-29T12:49:01;4.80;;;2.72;;
77520;SDS011;66633;47.628;19.158;2023-07-29T12:51:26;4.57;;;2.80;;
77520;SDS011;66633;47.628;19.158;2023-07-29T12:53:51;4.20;;;2.40;;
77520;SDS011;66633;47.628;19.158;2023-07-29T12:56:17;5.57;;;3.27;;
77520;SDS011;66633;47.628;19.158;2023-07-29T12:58:42;4.67;;;2.63;;
77520;SDS011;66633;47.628;19.158;2023-07-29T13:01:07;4.90;;;2.50;;
77520;SDS011;66633;47.628;19.158;2023-07-29T13:03:34;5.13;;;2.38;;
77520;SDS011;66633;47.628;19.158;2023-07-29T13:05:59;3.93;;;2.23;;
77520;SDS011;66633;47.628;19.158;2023-07-29T13:08:24;4.27;;;2.47;;
77520;SDS011;66633;47.628;19.158;2023-07-29T13:10:49;4.40;;;2.30;;
77520;SDS011;66633;47.628;19.158;2023-07-29T13:13:14;5.80;;;2.63;;
77520;SDS011;66633;47.628;19.158;2023-07-29T13:15:40;4.35;;;2.20;;
77520;SDS011;66633;47.628;19.158;2023-07-29T13:18:05;4.57;;;2.43;;
77520;SDS011;66633;47.628;19.158;2023-07-29T13:20:30;5.13;;;2.40;;
77520;SDS011;66633;47.628;19.158;2023-07-29T13:22:55;5.57;;;2.88;;
77520;SDS011;66633;47.628;19.158;2023-07-29T13:25:21;6.27;;;2.33;;
77520;SDS011;66633;47.628;19.158;2023-07-29T13:27:46;4.53;;;2.80;;
77520;SDS011;66633;47.628;19.158;2023-07-29T13:30:11;5.57;;;2.33;;
77520;SDS011;66633;47.628;19.158;2023-07-29T13:32:36;6.10;;;2.47;;
77520;SDS011;66633;47.628;19.158;2023-07-29T13:35:02;5.25;;;2.58;;
77520;SDS011;66633;47.628;19.158;2023-07-29T13:37:27;4.88;;;2.60;;
77520;SDS011;66633;47.628;19.158;2023-07-29T13:39:52;4.87;;;2.57;;
77520;SDS011;66633;47.628;19.158;2023-07-29T13:42:17;4.03;;;2.43;;
77520;SDS011;66633;47.628;19.158;2023-07-29T13:44:43;4.28;;;2.38;;
77520;SDS011;66633;47.628;19.158;2023-07-29T13:47:08;4.57;;;2.50;;
77520;SDS011;66633;47.628;19.158;2023-07-29T13:49:33;5.30;;;2.50;;
77520;SDS011;66633;47.628;19.158;2023-07-29T13:51:58;5.07;;;2.33;;
77520;SDS011;66633;47.628;19.158;2023-07-29T13:54:23;4.88;;;2.65;;
77520;SDS011;66633;47.628;19.158;2023-07-29T13:56:49;4.80;;;2.77;;
77520;SDS011;66633;47.628;19.158;2023-07-29T13:59:14;4.07;;;2.47;;
77520;SDS011;66633;47.628;19.158;2023-07-29T14:01:39;4.80;;;2.80;;
77520;SDS011;66633;47.628;19.158;2023-07-29T14:04:04;7.03;;;2.37;;
77520;SDS011;66633;47.628;19.158;2023-07-29T14:06:30;4.88;;;2.65;;
77520;SDS011;66633;47.628;19.158;2023-07-29T14:08:55;4.50;;;2.30;;
77520;SDS011;66633;47.628;19.158;2023-07-29T14:11:20;5.10;;;2.77;;
77520;SDS011;66633;47.628;19.158;2023-07-29T14:13:45;5.17;;;2.97;;
77520;SDS011;66633;47.628;19.158;2023-07-29T14:16:11;4.63;;;2.77;;
77520;SDS011;66633;47.628;19.158;2023-07-29T14:18:36;5.10;;;2.60;;
77520;SDS011;66633;47.628;19.158;2023-07-29T14:21:01;4.67;;;2.43;;
77520;SDS011;66633;47.628;19.158;2023-07-29T14:23:26;4.23;;;2.40;;
77520;SDS011;66633;47.628;19.158;2023-07-29T14:25:52;4.53;;;2.38;;
77520;SDS011;66633;47.628;19.158;2023-07-29T14:28:17;4.23;;;2.10;;
77520;SDS011;66633;47.628;19.158;2023-07-29T14:30:42;4.47;;;2.50;;
77520;SDS011;66633;47.628;19.158;2023-07-29T14:33:07;4.50;;;2.47;;
77520;SDS011;66633;47.628;19.158;2023-07-29T14:35:33;4.13;;;2.17;;
77520;SDS011;66633;47.628;19.158;2023-07-29T14:38:04;3.90;;;2.03;;
77520;SDS011;66633;47.628;19.158;2023-07-29T14:40:30;4.80;;;3.05;;